sensor_id;sensor_type;location;lat;lon;timestamp;temperature;humidity
22795;DHT22;11564;50.920;11.612;2023-05-20T00:00:10;12.30;99.90
22795;DHT22;11564;50.920;11.612;2023-05-20T00:02:36;12.30;99.90
22795;DHT22;11564;50.920;11.612;2023-05-20T00:05:02;12.30;99.90
22795;DHT22;11564;50.920;11.612;2023-05-20T00:07:28;12.30;99.90
22795;DHT22;11564;50.920;11.612;2023-05-20T00:09:53;12.30;99.90
22795;DHT22;11564;50.920;11.612;2023-05-20T00:12:19;12.30;99.90
22795;DHT22;11564;50.920;11.612;2023-05-20T00:14:44;12.30;99.90
22795;DHT22;11564;50.920;11.612;2023-05-20T00:17:10;12.30;99.90
22795;DHT22;11564;50.920;11.612;2023-05-20T00:19:36;12.30;99.90
22795;DHT22;11564;50.920;11.612;2023-05-20T00:22:01;12.20;99.90
22795;DHT22;11564;50.920;11.612;2023-05-20T00:24:27;12.20;99.90
22795;DHT22;11564;50.920;11.612;2023-05-20T00:26:53;12.20;99.90
22795;DHT22;11564;50.920;11.612;2023-05-20T00:29:20;12.20;99.90
22795;DHT22;11564;50.920;11.612;2023-05-20T00:31:46;12.20;99.90
22795;DHT22;11564;50.920;11.612;2023-05-20T00:34:12;12.10;99.90
22795;DHT22;11564;50.920;11.612;2023-05-20T00:36:37;12.10;99.90
22795;DHT22;11564;50.920;11.612;2023-05-20T00:39:03;12.20;99.90
22795;DHT22;11564;50.920;11.612;2023-05-20T00:41:29;12.10;99.90
22795;DHT22;11564;50.920;11.612;2023-05-20T00:43:55;12.20;99.90
22795;DHT22;11564;50.920;11.612;2023-05-20T00:46:22;12.20;99.90
22795;DHT22;11564;50.920;11.612;2023-05-20T00:48:49;12.10;99.90
22795;DHT22;11564;50.920;11.612;2023-05-20T00:51:15;12.10;99.90
22795;DHT22;11564;50.920;11.612;2023-05-20T00:53:41;12.10;99.90
22795;DHT22;11564;50.920;11.612;2023-05-20T00:56:08;12.10;99.90
22795;DHT22;11564;50.920;11.612;2023-05-20T00:58:34;12.20;99.90
22795;DHT22;11564;50.920;11.612;2023-05-20T01:01:01;12.10;99.90
22795;DHT22;11564;50.920;11.612;2023-05-20T01:03:27;12.10;99.90
22795;DHT22;11564;50.920;11.612;2023-05-20T01:05:53;12.10;99.90
22795;DHT22;11564;50.920;11.612;2023-05-20T01:08:20;12.10;99.90
22795;DHT22;11564;50.920;11.612;2023-05-20T01:10:50;12.10;99.90
22795;DHT22;11564;50.920;11.612;2023-05-20T01:13:20;12.00;99.90
22795;DHT22;11564;50.920;11.612;2023-05-20T01:15:49;12.00;99.90
22795;DHT22;11564;50.920;11.612;2023-05-20T01:18:17;12.00;99.90
22795;DHT22;11564;50.920;11.612;2023-05-20T01:20:49;12.00;99.90
22795;DHT22;11564;50.920;11.612;2023-05-20T01:23:15;12.00;99.90
22795;DHT22;11564;50.920;11.612;2023-05-20T01:25:41;11.90;99.90
22795;DHT22;11564;50.920;11.612;2023-05-20T01:28:07;11.90;99.90
22795;DHT22;11564;50.920;11.612;2023-05-20T01:30:37;11.90;99.90
22795;DHT22;11564;50.920;11.612;2023-05-20T01:33:08;11.90;99.90
22795;DHT22;11564;50.920;11.612;2023-05-20T01:35:35;11.90;99.90
22795;DHT22;11564;50.920;11.612;2023-05-20T01:38:02;11.90;99.90
22795;DHT22;11564;50.920;11.612;2023-05-20T01:40:29;11.90;99.90
22795;DHT22;11564;50.920;11.612;2023-05-20T01:42:57;12.00;99.90
22795;DHT22;11564;50.920;11.612;2023-05-20T01:45:23;11.90;99.90
22795;DHT22;11564;50.920;11.612;2023-05-20T01:47:50;11.90;99.90
22795;DHT22;11564;50.920;11.612;2023-05-20T01:50:16;11.90;99.90
22795;DHT22;11564;50.920;11.612;2023-05-20T01:52:41;11.90;99.90
22795;DHT22;11564;50.920;11.612;2023-05-20T01:55:07;11.90;99.90
22795;DHT22;11564;50.920;11.612;2023-05-20T01:57:33;11.90;99.90
22795;DHT22;11564;50.920;11.612;2023-05-20T01:59:58;11.90;99.90
22795;DHT22;11564;50.920;11.612;2023-05-20T02:02:24;11.90;99.90
22795;DHT22;11564;50.920;11.612;2023-05-20T02:04:52;11.90;99.90
22795;DHT22;11564;50.920;11.612;2023-05-20T02:07:18;11.80;99.90
22795;DHT22;11564;50.920;11.612;2023-05-20T02:09:44;11.90;99.90
22795;DHT22;11564;50.920;11.612;2023-05-20T02:12:10;11.90;99.90
22795;DHT22;11564;50.920;11.612;2023-05-20T02:14:46;11.90;99.90
22795;DHT22;11564;50.920;11.612;2023-05-20T02:17:13;11.90;99.90
22795;DHT22;11564;50.920;11.612;2023-05-20T02:19:41;11.80;99.90
22795;DHT22;11564;50.920;11.612;2023-05-20T02:22:06;11.80;99.90
22795;DHT22;11564;50.920;11.612;2023-05-20T02:24:32;11.80;99.90
22795;DHT22;11564;50.920;11.612;2023-05-20T02:26:57;11.80;99.90
22795;DHT22;11564;50.920;11.612;2023-05-20T02:29:24;11.80;99.90
22795;DHT22;11564;50.920;11.612;2023-05-20T02:31:50;11.80;99.90
22795;DHT22;11564;50.920;11.612;2023-05-20T02:34:19;11.80;99.90
22795;DHT22;11564;50.920;11.612;2023-05-20T02:36:45;11.70;99.90
22795;DHT22;11564;50.920;11.612;2023-05-20T02:39:11;11.70;99.90
22795;DHT22;11564;50.920;11.612;2023-05-20T02:41:37;11.70;99.90
22795;DHT22;11564;50.920;11.612;2023-05-20T02:44:03;11.70;99.90
22795;DHT22;11564;50.920;11.612;2023-05-20T02:46:28;11.80;99.90
22795;DHT22;11564;50.920;11.612;2023-05-20T02:48:54;11.80;99.90
22795;DHT22;11564;50.920;11.612;2023-05-20T02:51:19;11.80;99.90
22795;DHT22;11564;50.920;11.612;2023-05-20T02:53:45;11.70;99.90
22795;DHT22;11564;50.920;11.612;2023-05-20T02:56:12;11.80;99.90
22795;DHT22;11564;50.920;11.612;2023-05-20T02:58:38;11.80;99.90
22795;DHT22;11564;50.920;11.612;2023-05-20T03:01:04;11.80;99.90
22795;DHT22;11564;50.920;11.612;2023-05-20T03:03:29;11.70;99.90
22795;DHT22;11564;50.920;11.612;2023-05-20T03:05:55;11.70;99.90
22795;DHT22;11564;50.920;11.612;2023-05-20T03:08:21;11.70;99.90
22795;DHT22;11564;50.920;11.612;2023-05-20T03:10:47;11.80;99.90
22795;DHT22;11564;50.920;11.612;2023-05-20T03:13:13;11.80;99.90
22795;DHT22;11564;50.920;11.612;2023-05-20T03:15:43;11.80;99.90
22795;DHT22;11564;50.920;11.612;2023-05-20T03:18:10;11.80;99.90
22795;DHT22;11564;50.920;11.612;2023-05-20T03:20:37;11.70;99.90
22795;DHT22;11564;50.920;11.612;2023-05-20T03:23:03;11.70;99.90
22795;DHT22;11564;50.920;11.612;2023-05-20T03:25:29;11.80;99.90
22795;DHT22;11564;50.920;11.612;2023-05-20T03:27:55;11.70;99.90
22795;DHT22;11564;50.920;11.612;2023-05-20T03:30:22;11.70;99.90
22795;DHT22;11564;50.920;11.612;2023-05-20T03:32:48;11.70;99.90
22795;DHT22;11564;50.920;11.612;2023-05-20T03:35:14;11.70;99.90
22795;DHT22;11564;50.920;11.612;2023-05-20T03:37:40;11.70;99.90
22795;DHT22;11564;50.920;11.612;2023-05-20T03:40:06;11.70;99.90
22795;DHT22;11564;50.920;11.612;2023-05-20T03:42:33;11.70;99.90
22795;DHT22;11564;50.920;11.612;2023-05-20T03:44:59;11.70;99.90
22795;DHT22;11564;50.920;11.612;2023-05-20T03:47:25;11.70;99.90
22795;DHT22;11564;50.920;11.612;2023-05-20T03:49:51;11.80;99.90
22795;DHT22;11564;50.920;11.612;2023-05-20T03:52:17;11.80;99.90
22795;DHT22;11564;50.920;11.612;2023-05-20T03:54:43;11.80;99.90
22795;DHT22;11564;50.920;11.612;2023-05-20T03:57:08;11.80;99.90
22795;DHT22;11564;50.920;11.612;2023-05-20T03:59:37;11.80;99.90
22795;DHT22;11564;50.920;11.612;2023-05-20T04:02:04;11.80;99.90
22795;DHT22;11564;50.920;11.612;2023-05-20T04:04:30;11.80;99.90
22795;DHT22;11564;50.920;11.612;2023-05-20T04:06:57;11.80;99.90
22795;DHT22;11564;50.920;11.612;2023-05-20T04:09:22;11.80;99.90
22795;DHT22;11564;50.920;11.612;2023-05-20T04:11:48;11.80;99.90
22795;DHT22;11564;50.920;11.612;2023-05-20T04:14:13;11.80;99.90
22795;DHT22;11564;50.920;11.612;2023-05-20T04:16:40;11.80;99.90
22795;DHT22;11564;50.920;11.612;2023-05-20T04:19:06;11.90;99.90
22795;DHT22;11564;50.920;11.612;2023-05-20T04:21:31;11.90;99.90
22795;DHT22;11564;50.920;11.612;2023-05-20T04:23:57;11.90;99.90
22795;DHT22;11564;50.920;11.612;2023-05-20T04:26:22;12.00;99.90
22795;DHT22;11564;50.920;11.612;2023-05-20T04:28:48;12.00;99.90
22795;DHT22;11564;50.920;11.612;2023-05-20T04:31:14;12.00;99.90
22795;DHT22;11564;50.920;11.612;2023-05-20T04:33:40;12.00;99.90
22795;DHT22;11564;50.920;11.612;2023-05-20T04:36:10;12.10;99.90
22795;DHT22;11564;50.920;11.612;2023-05-20T04:38:37;12.10;99.90
22795;DHT22;11564;50.920;11.612;2023-05-20T04:41:03;12.10;99.90
22795;DHT22;11564;50.920;11.612;2023-05-20T04:43:28;12.10;99.90
22795;DHT22;11564;50.920;11.612;2023-05-20T04:45:56;12.20;99.90
22795;DHT22;11564;50.920;11.612;2023-05-20T04:48:21;12.20;99.90
22795;DHT22;11564;50.920;11.612;2023-05-20T04:50:48;12.20;99.90
22795;DHT22;11564;50.920;11.612;2023-05-20T04:53:17;12.20;99.90
22795;DHT22;11564;50.920;11.612;2023-05-20T04:55:44;12.20;99.90
22795;DHT22;11564;50.920;11.612;2023-05-20T04:58:10;12.30;99.90
22795;DHT22;11564;50.920;11.612;2023-05-20T05:00:43;12.30;99.90
22795;DHT22;11564;50.920;11.612;2023-05-20T05:03:09;12.30;99.90
22795;DHT22;11564;50.920;11.612;2023-05-20T05:05:37;12.30;99.90
22795;DHT22;11564;50.920;11.612;2023-05-20T05:08:04;12.30;99.90
22795;DHT22;11564;50.920;11.612;2023-05-20T05:10:31;12.30;99.90
22795;DHT22;11564;50.920;11.612;2023-05-20T05:12:56;12.30;99.90
22795;DHT22;11564;50.920;11.612;2023-05-20T05:15:23;12.30;99.90
22795;DHT22;11564;50.920;11.612;2023-05-20T05:17:48;12.30;99.90
22795;DHT22;11564;50.920;11.612;2023-05-20T05:20:14;12.30;99.90
22795;DHT22;11564;50.920;11.612;2023-05-20T05:22:40;12.30;99.90
22795;DHT22;11564;50.920;11.612;2023-05-20T05:25:09;12.30;99.90
22795;DHT22;11564;50.920;11.612;2023-05-20T05:27:35;12.30;99.90
22795;DHT22;11564;50.920;11.612;2023-05-20T05:30:02;12.20;99.90
22795;DHT22;11564;50.920;11.612;2023-05-20T05:32:27;12.30;99.90
22795;DHT22;11564;50.920;11.612;2023-05-20T05:34:53;12.30;99.90
22795;DHT22;11564;50.920;11.612;2023-05-20T05:37:19;12.30;99.90
22795;DHT22;11564;50.920;11.612;2023-05-20T05:39:44;12.30;99.90
22795;DHT22;11564;50.920;11.612;2023-05-20T05:42:10;12.30;99.90
22795;DHT22;11564;50.920;11.612;2023-05-20T05:44:35;12.40;99.90
22795;DHT22;11564;50.920;11.612;2023-05-20T05:47:01;12.50;99.90
22795;DHT22;11564;50.920;11.612;2023-05-20T05:49:27;12.60;99.90
22795;DHT22;11564;50.920;11.612;2023-05-20T05:51:53;12.80;99.90
22795;DHT22;11564;50.920;11.612;2023-05-20T05:54:18;12.80;99.90
22795;DHT22;11564;50.920;11.612;2023-05-20T05:56:47;12.80;99.90
22795;DHT22;11564;50.920;11.612;2023-05-20T05:59:12;12.90;99.90
22795;DHT22;11564;50.920;11.612;2023-05-20T06:01:38;12.90;99.90
22795;DHT22;11564;50.920;11.612;2023-05-20T06:04:03;12.90;99.90
22795;DHT22;11564;50.920;11.612;2023-05-20T06:06:30;12.90;99.90
22795;DHT22;11564;50.920;11.612;2023-05-20T06:08:56;13.00;99.90
22795;DHT22;11564;50.920;11.612;2023-05-20T06:11:22;12.80;99.90
22795;DHT22;11564;50.920;11.612;2023-05-20T06:13:48;12.80;99.90
22795;DHT22;11564;50.920;11.612;2023-05-20T06:16:14;12.80;99.90
22795;DHT22;11564;50.920;11.612;2023-05-20T06:18:41;12.80;99.90
22795;DHT22;11564;50.920;11.612;2023-05-20T06:21:06;12.80;99.90
22795;DHT22;11564;50.920;11.612;2023-05-20T06:23:32;12.80;99.90
22795;DHT22;11564;50.920;11.612;2023-05-20T06:25:58;12.90;99.90
22795;DHT22;11564;50.920;11.612;2023-05-20T06:28:28;12.90;99.90
22795;DHT22;11564;50.920;11.612;2023-05-20T06:30:54;13.00;99.90
22795;DHT22;11564;50.920;11.612;2023-05-20T06:33:22;13.00;99.90
22795;DHT22;11564;50.920;11.612;2023-05-20T06:35:51;13.10;99.90
22795;DHT22;11564;50.920;11.612;2023-05-20T06:38:16;13.20;99.90
22795;DHT22;11564;50.920;11.612;2023-05-20T06:40:42;13.20;99.90
22795;DHT22;11564;50.920;11.612;2023-05-20T06:43:07;13.20;99.90
22795;DHT22;11564;50.920;11.612;2023-05-20T06:45:33;13.10;99.90
22795;DHT22;11564;50.920;11.612;2023-05-20T06:47:58;13.20;99.90
22795;DHT22;11564;50.920;11.612;2023-05-20T06:50:24;13.30;99.90
22795;DHT22;11564;50.920;11.612;2023-05-20T06:52:50;13.40;99.90
22795;DHT22;11564;50.920;11.612;2023-05-20T06:55:16;13.50;99.90
22795;DHT22;11564;50.920;11.612;2023-05-20T06:57:41;13.70;99.90
22795;DHT22;11564;50.920;11.612;2023-05-20T07:00:08;13.70;99.90
22795;DHT22;11564;50.920;11.612;2023-05-20T07:02:33;13.70;99.90
22795;DHT22;11564;50.920;11.612;2023-05-20T07:04:59;13.90;99.90
22795;DHT22;11564;50.920;11.612;2023-05-20T07:07:25;14.10;99.90
22795;DHT22;11564;50.920;11.612;2023-05-20T07:09:53;14.00;99.90
22795;DHT22;11564;50.920;11.612;2023-05-20T07:12:19;14.20;99.90
22795;DHT22;11564;50.920;11.612;2023-05-20T07:14:44;14.20;99.90
22795;DHT22;11564;50.920;11.612;2023-05-20T07:17:11;14.50;99.90
22795;DHT22;11564;50.920;11.612;2023-05-20T07:19:37;14.60;99.90
22795;DHT22;11564;50.920;11.612;2023-05-20T07:22:02;14.80;99.90
22795;DHT22;11564;50.920;11.612;2023-05-20T07:24:28;14.70;99.90
22795;DHT22;11564;50.920;11.612;2023-05-20T07:26:53;14.90;99.90
22795;DHT22;11564;50.920;11.612;2023-05-20T07:29:19;14.80;99.90
22795;DHT22;11564;50.920;11.612;2023-05-20T07:31:45;14.80;99.90
22795;DHT22;11564;50.920;11.612;2023-05-20T07:34:10;14.80;99.90
22795;DHT22;11564;50.920;11.612;2023-05-20T07:36:36;14.80;99.90
22795;DHT22;11564;50.920;11.612;2023-05-20T07:39:02;14.80;99.90
22795;DHT22;11564;50.920;11.612;2023-05-20T07:41:28;14.90;99.90
22795;DHT22;11564;50.920;11.612;2023-05-20T07:43:54;15.20;99.90
22795;DHT22;11564;50.920;11.612;2023-05-20T07:46:19;15.50;99.90
22795;DHT22;11564;50.920;11.612;2023-05-20T07:48:45;15.50;99.90
22795;DHT22;11564;50.920;11.612;2023-05-20T07:51:11;15.60;99.90
22795;DHT22;11564;50.920;11.612;2023-05-20T07:53:36;15.70;99.90
22795;DHT22;11564;50.920;11.612;2023-05-20T07:56:02;15.70;99.90
22795;DHT22;11564;50.920;11.612;2023-05-20T07:58:30;15.80;99.90
22795;DHT22;11564;50.920;11.612;2023-05-20T08:00:56;15.90;99.90
22795;DHT22;11564;50.920;11.612;2023-05-20T08:03:22;16.00;99.90
22795;DHT22;11564;50.920;11.612;2023-05-20T08:05:47;16.10;99.90
22795;DHT22;11564;50.920;11.612;2023-05-20T08:08:13;15.80;99.90
22795;DHT22;11564;50.920;11.612;2023-05-20T08:10:38;15.90;99.90
22795;DHT22;11564;50.920;11.612;2023-05-20T08:13:04;15.70;99.90
22795;DHT22;11564;50.920;11.612;2023-05-20T08:15:30;15.70;99.90
22795;DHT22;11564;50.920;11.612;2023-05-20T08:17:56;15.80;99.90
22795;DHT22;11564;50.920;11.612;2023-05-20T08:20:21;15.70;99.90
22795;DHT22;11564;50.920;11.612;2023-05-20T08:22:47;15.50;99.90
22795;DHT22;11564;50.920;11.612;2023-05-20T08:25:13;15.70;99.90
22795;DHT22;11564;50.920;11.612;2023-05-20T08:27:39;15.80;99.90
22795;DHT22;11564;50.920;11.612;2023-05-20T08:30:07;15.80;99.90
22795;DHT22;11564;50.920;11.612;2023-05-20T08:32:35;15.90;99.90
22795;DHT22;11564;50.920;11.612;2023-05-20T08:35:02;16.00;99.90
22795;DHT22;11564;50.920;11.612;2023-05-20T08:37:28;16.00;99.90
22795;DHT22;11564;50.920;11.612;2023-05-20T08:39:54;15.80;99.90
22795;DHT22;11564;50.920;11.612;2023-05-20T08:42:24;15.90;99.90
22795;DHT22;11564;50.920;11.612;2023-05-20T08:44:51;15.70;99.90
22795;DHT22;11564;50.920;11.612;2023-05-20T08:47:21;15.90;99.90
22795;DHT22;11564;50.920;11.612;2023-05-20T08:49:48;16.00;99.90
22795;DHT22;11564;50.920;11.612;2023-05-20T08:52:16;16.30;99.90
22795;DHT22;11564;50.920;11.612;2023-05-20T08:54:47;16.30;99.90
22795;DHT22;11564;50.920;11.612;2023-05-20T08:57:13;16.40;99.90
22795;DHT22;11564;50.920;11.612;2023-05-20T08:59:44;16.70;99.90
22795;DHT22;11564;50.920;11.612;2023-05-20T09:02:11;16.70;99.90
22795;DHT22;11564;50.920;11.612;2023-05-20T09:04:37;16.70;99.90
22795;DHT22;11564;50.920;11.612;2023-05-20T09:07:03;16.90;99.90
22795;DHT22;11564;50.920;11.612;2023-05-20T09:09:31;16.90;99.90
22795;DHT22;11564;50.920;11.612;2023-05-20T09:11:58;17.00;99.90
22795;DHT22;11564;50.920;11.612;2023-05-20T09:14:24;17.00;99.90
22795;DHT22;11564;50.920;11.612;2023-05-20T09:16:51;16.90;99.90
22795;DHT22;11564;50.920;11.612;2023-05-20T09:19:20;17.40;99.90
22795;DHT22;11564;50.920;11.612;2023-05-20T09:21:46;17.60;99.90
22795;DHT22;11564;50.920;11.612;2023-05-20T09:24:12;18.30;99.90
22795;DHT22;11564;50.920;11.612;2023-05-20T09:26:37;18.70;99.90
22795;DHT22;11564;50.920;11.612;2023-05-20T09:29:03;19.00;99.90
22795;DHT22;11564;50.920;11.612;2023-05-20T09:31:32;18.60;99.90
22795;DHT22;11564;50.920;11.612;2023-05-20T09:34:00;18.10;99.90
22795;DHT22;11564;50.920;11.612;2023-05-20T09:36:28;18.00;99.90
22795;DHT22;11564;50.920;11.612;2023-05-20T09:38:59;18.20;99.90
22795;DHT22;11564;50.920;11.612;2023-05-20T09:41:33;18.00;99.90
22795;DHT22;11564;50.920;11.612;2023-05-20T09:44:00;18.50;99.90
22795;DHT22;11564;50.920;11.612;2023-05-20T09:46:26;18.90;99.90
22795;DHT22;11564;50.920;11.612;2023-05-20T09:48:52;19.10;99.90
22795;DHT22;11564;50.920;11.612;2023-05-20T09:51:19;18.90;99.10
22795;DHT22;11564;50.920;11.612;2023-05-20T09:53:47;18.80;99.40
22795;DHT22;11564;50.920;11.612;2023-05-20T09:56:12;18.60;99.00
22795;DHT22;11564;50.920;11.612;2023-05-20T09:58:39;18.60;99.30
22795;DHT22;11564;50.920;11.612;2023-05-20T10:01:06;18.30;99.20
22795;DHT22;11564;50.920;11.612;2023-05-20T10:03:32;18.20;99.70
22795;DHT22;11564;50.920;11.612;2023-05-20T10:11:55;18.30;99.80
22795;DHT22;11564;50.920;11.612;2023-05-20T10:14:37;18.30;99.60
22795;DHT22;11564;50.920;11.612;2023-05-20T10:17:19;18.40;99.80
22795;DHT22;11564;50.920;11.612;2023-05-20T10:19:46;18.10;99.50
22795;DHT22;11564;50.920;11.612;2023-05-20T10:22:12;18.20;99.90
22795;DHT22;11564;50.920;11.612;2023-05-20T10:24:40;18.20;99.80
22795;DHT22;11564;50.920;11.612;2023-05-20T10:27:13;18.30;99.80
22795;DHT22;11564;50.920;11.612;2023-05-20T10:29:49;18.30;99.60
22795;DHT22;11564;50.920;11.612;2023-05-20T10:32:29;18.50;99.10
22795;DHT22;11564;50.920;11.612;2023-05-20T10:35:00;18.90;99.50
22795;DHT22;11564;50.920;11.612;2023-05-20T10:37:31;19.10;99.10
22795;DHT22;11564;50.920;11.612;2023-05-20T10:40:24;19.20;98.90
22795;DHT22;11564;50.920;11.612;2023-05-20T10:42:49;19.70;98.50
22795;DHT22;11564;50.920;11.612;2023-05-20T10:45:28;20.10;98.60
22795;DHT22;11564;50.920;11.612;2023-05-20T10:47:55;20.90;97.90
22795;DHT22;11564;50.920;11.612;2023-05-20T10:50:34;21.30;96.60
22795;DHT22;11564;50.920;11.612;2023-05-20T10:53:11;21.60;96.30
22795;DHT22;11564;50.920;11.612;2023-05-20T10:55:46;22.10;96.30
22795;DHT22;11564;50.920;11.612;2023-05-20T10:58:13;22.50;95.20
22795;DHT22;11564;50.920;11.612;2023-05-20T11:00:39;22.60;94.50
22795;DHT22;11564;50.920;11.612;2023-05-20T11:03:06;22.60;94.40
22795;DHT22;11564;50.920;11.612;2023-05-20T11:05:32;22.90;94.20
22795;DHT22;11564;50.920;11.612;2023-05-20T11:08:05;22.90;93.60
22795;DHT22;11564;50.920;11.612;2023-05-20T11:10:32;23.00;93.40
22795;DHT22;11564;50.920;11.612;2023-05-20T11:13:00;22.80;92.90
22795;DHT22;11564;50.920;11.612;2023-05-20T11:15:26;23.10;92.40
22795;DHT22;11564;50.920;11.612;2023-05-20T11:17:56;22.80;92.60
22795;DHT22;11564;50.920;11.612;2023-05-20T11:20:23;23.10;92.50
22795;DHT22;11564;50.920;11.612;2023-05-20T11:22:50;23.50;92.40
22795;DHT22;11564;50.920;11.612;2023-05-20T11:25:17;23.90;91.60
22795;DHT22;11564;50.920;11.612;2023-05-20T11:27:43;24.10;91.00
22795;DHT22;11564;50.920;11.612;2023-05-20T11:30:11;24.30;91.50
22795;DHT22;11564;50.920;11.612;2023-05-20T11:32:37;24.20;90.30
22795;DHT22;11564;50.920;11.612;2023-05-20T11:35:04;23.60;90.30
22795;DHT22;11564;50.920;11.612;2023-05-20T11:37:29;23.60;90.70
22795;DHT22;11564;50.920;11.612;2023-05-20T11:40:03;23.30;90.80
22795;DHT22;11564;50.920;11.612;2023-05-20T11:42:32;23.20;90.80
22795;DHT22;11564;50.920;11.612;2023-05-20T11:44:59;23.40;90.90
22795;DHT22;11564;50.920;11.612;2023-05-20T11:47:25;23.90;91.20
22795;DHT22;11564;50.920;11.612;2023-05-20T11:49:55;23.70;90.30
22795;DHT22;11564;50.920;11.612;2023-05-20T11:52:21;24.10;90.10
22795;DHT22;11564;50.920;11.612;2023-05-20T11:54:52;24.40;90.10
22795;DHT22;11564;50.920;11.612;2023-05-20T11:57:18;24.40;90.20
22795;DHT22;11564;50.920;11.612;2023-05-20T11:59:45;24.90;90.00
22795;DHT22;11564;50.920;11.612;2023-05-20T12:02:11;24.90;88.90
22795;DHT22;11564;50.920;11.612;2023-05-20T12:04:36;25.10;88.20
22795;DHT22;11564;50.920;11.612;2023-05-20T12:07:02;25.50;88.50
22795;DHT22;11564;50.920;11.612;2023-05-20T12:09:28;25.30;87.40
22795;DHT22;11564;50.920;11.612;2023-05-20T12:11:54;25.30;87.10
22795;DHT22;11564;50.920;11.612;2023-05-20T12:14:21;25.20;88.10
22795;DHT22;11564;50.920;11.612;2023-05-20T12:16:46;25.30;88.10
22795;DHT22;11564;50.920;11.612;2023-05-20T12:19:12;25.00;87.60
22795;DHT22;11564;50.920;11.612;2023-05-20T12:21:37;25.10;87.90
22795;DHT22;11564;50.920;11.612;2023-05-20T12:24:03;24.80;87.00
22795;DHT22;11564;50.920;11.612;2023-05-20T12:26:31;24.40;88.30
22795;DHT22;11564;50.920;11.612;2023-05-20T12:28:57;23.90;87.70
22795;DHT22;11564;50.920;11.612;2023-05-20T12:31:24;23.90;88.40
22795;DHT22;11564;50.920;11.612;2023-05-20T12:33:50;23.40;87.80
22795;DHT22;11564;50.920;11.612;2023-05-20T12:36:15;23.10;89.50
22795;DHT22;11564;50.920;11.612;2023-05-20T12:38:41;22.70;90.00
22795;DHT22;11564;50.920;11.612;2023-05-20T12:41:07;23.00;90.30
22795;DHT22;11564;50.920;11.612;2023-05-20T12:43:34;23.50;89.60
22795;DHT22;11564;50.920;11.612;2023-05-20T12:46:00;24.00;88.80
22795;DHT22;11564;50.920;11.612;2023-05-20T12:48:26;24.10;88.00
22795;DHT22;11564;50.920;11.612;2023-05-20T12:50:51;23.40;89.10
22795;DHT22;11564;50.920;11.612;2023-05-20T12:53:17;22.90;89.90
22795;DHT22;11564;50.920;11.612;2023-05-20T12:55:43;22.90;89.10
22795;DHT22;11564;50.920;11.612;2023-05-20T12:58:08;23.30;90.10
22795;DHT22;11564;50.920;11.612;2023-05-20T13:00:34;23.80;90.10
22795;DHT22;11564;50.920;11.612;2023-05-20T13:03:00;24.60;89.00
22795;DHT22;11564;50.920;11.612;2023-05-20T13:05:26;25.20;86.30
22795;DHT22;11564;50.920;11.612;2023-05-20T13:07:51;26.00;85.10
22795;DHT22;11564;50.920;11.612;2023-05-20T13:10:17;26.30;85.30
22795;DHT22;11564;50.920;11.612;2023-05-20T13:12:44;27.00;83.80
22795;DHT22;11564;50.920;11.612;2023-05-20T13:15:13;26.40;84.40
22795;DHT22;11564;50.920;11.612;2023-05-20T13:17:39;26.30;84.00
22795;DHT22;11564;50.920;11.612;2023-05-20T13:20:05;26.30;83.30
22795;DHT22;11564;50.920;11.612;2023-05-20T13:22:31;26.70;83.60
22795;DHT22;11564;50.920;11.612;2023-05-20T13:24:57;28.50;80.60
22795;DHT22;11564;50.920;11.612;2023-05-20T13:27:23;28.30;78.90
22795;DHT22;11564;50.920;11.612;2023-05-20T13:29:49;28.40;78.60
22795;DHT22;11564;50.920;11.612;2023-05-20T13:32:14;29.00;77.90
22795;DHT22;11564;50.920;11.612;2023-05-20T13:34:40;28.40;78.20
22795;DHT22;11564;50.920;11.612;2023-05-20T13:37:06;29.50;77.10
22795;DHT22;11564;50.920;11.612;2023-05-20T13:39:31;30.80;74.30
22795;DHT22;11564;50.920;11.612;2023-05-20T13:41:58;31.30;72.50
22795;DHT22;11564;50.920;11.612;2023-05-20T13:44:23;34.20;67.70
22795;DHT22;11564;50.920;11.612;2023-05-20T13:46:49;35.10;65.00
22795;DHT22;11564;50.920;11.612;2023-05-20T13:49:15;37.50;60.30
22795;DHT22;11564;50.920;11.612;2023-05-20T13:51:40;38.20;58.00
22795;DHT22;11564;50.920;11.612;2023-05-20T13:54:06;36.50;57.80
22795;DHT22;11564;50.920;11.612;2023-05-20T13:56:32;36.90;57.00
22795;DHT22;11564;50.920;11.612;2023-05-20T13:58:58;37.50;56.50
22795;DHT22;11564;50.920;11.612;2023-05-20T14:01:23;37.30;56.30
22795;DHT22;11564;50.920;11.612;2023-05-20T14:03:49;38.30;53.90
22795;DHT22;11564;50.920;11.612;2023-05-20T14:06:15;38.80;53.80
22795;DHT22;11564;50.920;11.612;2023-05-20T14:08:44;38.60;53.70
22795;DHT22;11564;50.920;11.612;2023-05-20T14:11:10;39.90;52.00
22795;DHT22;11564;50.920;11.612;2023-05-20T14:13:36;39.40;51.90
22795;DHT22;11564;50.920;11.612;2023-05-20T14:16:01;39.80;51.80
22795;DHT22;11564;50.920;11.612;2023-05-20T14:18:27;41.10;50.20
22795;DHT22;11564;50.920;11.612;2023-05-20T14:20:52;40.50;50.00
22795;DHT22;11564;50.920;11.612;2023-05-20T14:23:18;41.60;49.50
22795;DHT22;11564;50.920;11.612;2023-05-20T14:25:44;41.00;48.90
22795;DHT22;11564;50.920;11.612;2023-05-20T14:28:09;41.70;48.50
22795;DHT22;11564;50.920;11.612;2023-05-20T14:30:35;42.20;47.90
22795;DHT22;11564;50.920;11.612;2023-05-20T14:33:01;39.80;49.20
22795;DHT22;11564;50.920;11.612;2023-05-20T14:35:27;40.60;48.90
22795;DHT22;11564;50.920;11.612;2023-05-20T14:37:52;40.50;48.90
22795;DHT22;11564;50.920;11.612;2023-05-20T14:40:18;39.10;49.80
22795;DHT22;11564;50.920;11.612;2023-05-20T14:42:43;37.40;51.70
22795;DHT22;11564;50.920;11.612;2023-05-20T14:45:09;36.90;52.40
22795;DHT22;11564;50.920;11.612;2023-05-20T14:47:35;36.80;52.60
22795;DHT22;11564;50.920;11.612;2023-05-20T14:50:01;39.00;50.40
22795;DHT22;11564;50.920;11.612;2023-05-20T14:52:26;38.70;50.30
22795;DHT22;11564;50.920;11.612;2023-05-20T14:54:52;39.10;50.60
22795;DHT22;11564;50.920;11.612;2023-05-20T14:57:18;38.00;51.40
22795;DHT22;11564;50.920;11.612;2023-05-20T14:59:44;36.60;52.00
22795;DHT22;11564;50.920;11.612;2023-05-20T15:02:10;36.00;53.20
22795;DHT22;11564;50.920;11.612;2023-05-20T15:04:38;36.40;53.10
22795;DHT22;11564;50.920;11.612;2023-05-20T15:07:04;36.90;52.90
22795;DHT22;11564;50.920;11.612;2023-05-20T15:09:30;35.90;53.40
22795;DHT22;11564;50.920;11.612;2023-05-20T15:11:56;34.80;54.90
22795;DHT22;11564;50.920;11.612;2023-05-20T15:14:21;34.50;55.60
22795;DHT22;11564;50.920;11.612;2023-05-20T15:16:47;33.40;56.40